Time;durP1;ratioP1;P1;durP2;ratioP2;P2;SDS_P1;SDS_P2;PMS_P1;PMS_P2;Temp;Humidity;BMP_temperature;BMP_pressure;BME280_temperature;BME280_humidity;BME280_pressure;Samples;Min_cycle;Max_cycle;Signal;HPM_P1;HPM_P2
2022/03/22 00:00:31;;;;;;;26.57;13.17;;;;;;;;;;4981436;28;20502;-57
2022/03/22 00:02:58;;;;;;;18.60;12.97;;;;;;;;;;4984893;28;20426;-58
2022/03/22 00:05:24;;;;;;;18.13;12.83;;;;;;;;;;4984817;28;20418;-58
2022/03/22 00:07:50;;;;;;;28.13;15.30;;;;;;;;;;4984289;28;20431;-58
2022/03/22 00:10:16;;;;;;;18.20;12.30;;;;;;;;;;4984825;28;20422;-58
2022/03/22 00:12:42;;;;;;;20.33;13.57;;;;;;;;;;4983808;28;20426;-56
2022/03/22 00:15:10;;;;;;;20.93;14.37;;;;;;;;;;4985341;28;20426;-57
2022/03/22 00:17:36;;;;;;;17.83;12.00;;;;;;;;;;4969213;28;20474;-58
2022/03/22 00:20:03;;;;;;;21.13;14.57;;;;;;;;;;4993059;28;20448;-58
2022/03/22 00:22:29;;;;;;;27.83;15.67;;;;;;;;;;4984572;28;20446;-58
2022/03/22 00:24:55;;;;;;;20.13;13.97;;;;;;;;;;4992227;28;20473;-57
2022/03/22 00:27:21;;;;;;;24.30;13.30;;;;;;;;;;4983893;28;20426;-57
2022/03/22 00:29:48;;;;;;;28.23;14.73;;;;;;;;;;4985874;28;20434;-57
2022/03/22 00:32:15;;;;;;;23.33;14.07;;;;;;;;;;4986900;28;20793;-58
2022/03/22 00:34:44;;;;;;;29.00;17.07;;;;;;;;;;4986319;28;20751;-58
2022/03/22 00:37:14;;;;;;;27.00;17.57;;;;;;;;;;4984212;28;20466;-58
2022/03/22 00:39:40;;;;;;;49.63;16.00;;;;;;;;;;4992318;28;20474;-57
2022/03/22 00:42:06;;;;;;;23.57;14.33;;;;;;;;;;4979039;28;20942;-58
2022/03/22 00:44:32;;;;;;;18.13;13.87;;;;;;;;;;4986532;28;20425;-57
2022/03/22 00:46:59;;;;;;;21.17;14.90;;;;;;;;;;4983566;28;20422;-58
2022/03/22 00:49:25;;;;;;;26.47;15.43;;;;;;;;;;4983146;28;20191;-58
2022/03/22 00:51:51;;;;;;;21.37;14.70;;;;;;;;;;4982843;28;20419;-57
2022/03/22 00:54:19;;;;;;;20.90;14.40;;;;;;;;;;4982891;28;20458;-57
2022/03/22 00:56:45;;;;;;;27.07;16.77;;;;;;;;;;4983920;28;21050;-58
2022/03/22 01:01:58;;;;;;;29.70;15.47;;;;;;;;;;4983473;28;20446;-58
2022/03/22 01:04:24;;;;;;;25.53;15.57;;;;;;;;;;4982904;28;20453;-58
2022/03/22 01:06:50;;;;;;;25.27;15.00;;;;;;;;;;4984228;28;20513;-57
2022/03/22 01:09:16;;;;;;;20.63;13.90;;;;;;;;;;4984014;28;20427;-58
2022/03/22 01:11:42;;;;;;;23.57;15.07;;;;;;;;;;4983258;28;20426;-58
2022/03/22 01:14:09;;;;;;;20.50;13.43;;;;;;;;;;4989222;28;20450;-58
2022/03/22 01:16:35;;;;;;;21.33;14.57;;;;;;;;;;4982594;28;20467;-57
2022/03/22 01:19:01;;;;;;;21.10;13.80;;;;;;;;;;4985707;28;20444;-57
2022/03/22 01:21:28;;;;;;;18.20;13.43;;;;;;;;;;4985777;28;20247;-57
2022/03/22 01:23:54;;;;;;;23.50;15.20;;;;;;;;;;4983434;28;20509;-58
2022/03/22 01:26:20;;;;;;;26.33;14.57;;;;;;;;;;4982308;28;20426;-58
2022/03/22 01:28:46;;;;;;;19.37;13.93;;;;;;;;;;4987840;28;20455;-57
2022/03/22 01:31:12;;;;;;;30.23;14.43;;;;;;;;;;4978707;28;20928;-58
2022/03/22 01:33:38;;;;;;;20.13;14.20;;;;;;;;;;4985468;28;20851;-56
2022/03/22 01:36:04;;;;;;;22.67;16.33;;;;;;;;;;4982142;28;20940;-58
2022/03/22 01:38:30;;;;;;;20.87;13.70;;;;;;;;;;4984530;28;20621;-57
2022/03/22 01:40:56;;;;;;;30.57;13.83;;;;;;;;;;4982683;28;20457;-57
2022/03/22 01:43:22;;;;;;;22.53;14.57;;;;;;;;;;4984781;28;20206;-57
2022/03/22 01:45:49;;;;;;;20.40;12.70;;;;;;;;;;4977547;28;20184;-57
2022/03/22 01:48:15;;;;;;;21.80;13.87;;;11.00;1.00;;;;;;4985329;28;20431;-57
2022/03/22 01:50:41;;;;;;;27.20;15.20;;;;;;;;;;4984786;28;20426;-57
2022/03/22 01:53:10;;;;;;;18.57;13.00;;;;;;;;;;4981667;28;20309;-57
2022/03/22 01:55:36;;;;;;;18.60;12.73;;;;;;;;;;4981724;28;20503;-57
2022/03/22 01:58:03;;;;;;;27.03;13.90;;;;;;;;;;4989770;28;20462;-57
2022/03/22 02:00:29;;;;;;;20.30;13.60;;;;;;;;;;4988426;28;21014;-57
2022/03/22 02:05:56;;;;;;;24.80;14.50;;;;;;;;;;4982151;28;20489;-57
2022/03/22 02:08:29;;;;;;;20.90;14.80;;;;;;;;;;4984772;28;20465;-57
2022/03/22 02:10:56;;;;;;;21.90;15.43;;;;;;;;;;4982527;28;20493;-57
2022/03/22 02:13:22;;;;;;;27.63;14.60;;;;;;;;;;4981476;28;20532;-57
2022/03/22 02:15:49;;;;;;;28.13;14.47;;;;;;;;;;4986725;28;20948;-57
2022/03/22 02:18:16;;;;;;;27.53;12.90;;;;;;;;;;4978282;28;20481;-57
2022/03/22 02:20:42;;;;;;;26.30;15.87;;;;;;;;;;4983989;28;20795;-57
2022/03/22 02:23:19;;;;;;;18.97;13.37;;;;;;;;;;4981227;28;20427;-57
2022/03/22 02:25:45;;;;;;;22.57;13.80;;;;;;;;;;4982444;28;20472;-57
2022/03/22 02:28:11;;;;;;;26.43;14.83;;;;;;;;;;4984599;28;20434;-57
2022/03/22 02:30:38;;;;;;;24.30;14.80;;;;;;;;;;4984559;28;20522;-57
2022/03/22 02:33:04;;;;;;;25.10;14.60;;;;;;;;;;4976385;28;20486;-57
2022/03/22 02:35:30;;;;;;;19.83;12.97;;;;;;;;;;4981224;28;20427;-57
2022/03/22 02:37:57;;;;;;;26.67;15.20;;;;;;;;;;4983284;28;20506;-57
2022/03/22 02:40:25;;;;;;;25.03;15.23;;;;;;;;;;4983790;28;20482;-57
2022/03/22 02:42:54;;;;;;;21.40;15.70;;;;;;;;;;4982494;28;20425;-57
2022/03/22 02:45:20;;;;;;;22.27;14.37;;;;;;;;;;4981039;28;20821;-57
2022/03/22 02:47:46;;;;;;;20.73;14.33;;;;;;;;;;4982161;28;20918;-57
2022/03/22 02:50:12;;;;;;;24.47;14.60;;;;;;;;;;4987171;28;20447;-57
2022/03/22 02:52:38;;;;;;;20.60;14.03;;;;;;;;;;4980866;28;20435;-57
2022/03/22 02:55:06;;;;;;;20.37;13.07;;;;;;;;;;4984217;28;20924;-57
2022/03/22 02:57:32;;;;;;;24.80;15.73;;;;;;;;;;4990922;28;20468;-57
2022/03/22 02:59:58;;;;;;;20.27;14.00;;;;;;;;;;4981316;28;20539;-57
2022/03/22 03:02:24;;;;;;;21.70;14.80;;;;;;;;;;4980690;28;20445;-57
2022/03/22 03:04:50;;;;;;;28.83;15.20;;;;;;;;;;4965449;28;20936;-57
2022/03/22 03:07:16;;;;;;;27.53;14.50;;;;;;;;;;4975618;28;20434;-57
2022/03/22 03:09:42;;;;;;;21.90;15.37;;;;;;;;;;4981251;28;20191;-57
2022/03/22 03:12:08;;;;;;;18.60;13.63;;;;;;;;;;4984137;28;20426;-57
2022/03/22 03:14:40;;;;;;;24.70;15.13;;;;;;;;;;4983931;28;20193;-57
2022/03/22 03:17:14;;;;;;;19.33;14.00;;;;;;;;;;4987970;28;21067;-57
2022/03/22 03:19:41;;;;;;;24.00;14.03;;;;;;;;;;4980916;28;20457;-57
2022/03/22 03:22:08;;;;;;;27.13;14.77;;;;;;;;;;4987278;28;20430;-57
2022/03/22 03:24:34;;;;;;;28.07;14.37;;;;;;;;;;4980457;28;20971;-57
2022/03/22 03:27:00;;;;;;;22.43;14.67;;;;;;;;;;4983753;28;20422;-57
2022/03/22 03:29:26;;;;;;;20.77;14.50;;;;;;;;;;4983646;28;20431;-57
2022/03/22 03:31:52;;;;;;;29.63;14.47;;;;;;;;;;4981730;28;20450;-57
2022/03/22 03:34:19;;;;;;;22.90;15.40;;;;;;;;;;4980250;28;20451;-57
2022/03/22 03:36:45;;;;;;;18.27;13.90;;;;;;;;;;4988190;28;20465;-57
2022/03/22 03:39:11;;;;;;;23.90;12.50;;;;;;;;;;4982179;28;20466;-57
2022/03/22 03:41:53;;;;;;;24.83;14.30;;;;;;;;;;4980104;28;20419;-57
2022/03/22 03:47:05;;;;;;;25.60;14.23;;;;;;;;;;4988019;28;20442;-57
2022/03/22 03:49:35;;;;;;;31.70;15.00;;;;;;;;;;4980114;28;20419;-57
2022/03/22 03:52:01;;;;;;;20.73;14.33;;;;;;;;;;4982952;28;20418;-57
2022/03/22 03:54:27;;;;;;;21.97;14.60;;;;;;;;;;4979342;28;20558;-57
2022/03/22 03:56:53;;;;;;;19.77;12.90;;;;;;;;;;4981949;28;21193;-57
2022/03/22 03:59:20;;;;;;;22.37;13.97;;;;;;;;;;4983112;28;20438;-57
2022/03/22 04:01:46;;;;;;;22.17;14.53;;;;;;;;;;4981944;28;20517;-57
2022/03/22 04:04:12;;;;;;;21.80;15.10;;;;;;;;;;4979902;28;20419;-57
2022/03/22 04:06:38;;;;;;;27.57;14.50;;;7.30;99.90;;;;;;4979808;28;20427;-57
2022/03/22 04:09:04;;;;;;;24.07;14.17;;;6.10;99.90;;;;;;4982584;28;20438;-57
2022/03/22 04:11:29;;;;;;;24.90;15.13;;;6.00;99.90;;;;;;4986403;28;20297;-57
2022/03/22 04:13:55;;;;;;;27.87;14.50;;;6.00;99.90;;;;;;4980730;28;20194;-57
2022/03/22 04:16:20;;;;;;;23.83;15.73;;;6.00;99.90;;;;;;4979681;28;20230;-57
2022/03/22 04:18:46;;;;;;;26.40;15.97;;;5.90;99.90;;;;;;4980883;28;20441;-57
2022/03/22 04:21:12;;;;;;;20.20;13.93;;;5.90;99.90;;;;;;4982993;28;20253;-57
2022/03/22 04:23:38;;;;;;;23.93;13.97;;;5.90;99.90;;;;;;4982741;28;20193;-57
2022/03/22 04:26:04;;;;;;;22.83;13.93;;;5.90;99.90;;;;;;4979650;28;20474;-57
2022/03/22 04:33:58;;;;;;;23.13;13.73;;;5.90;99.90;;;;;;4982109;28;20772;-57
2022/03/22 04:36:23;;;;;;;22.37;14.30;;;5.90;99.90;;;;;;4982666;28;20454;-57
2022/03/22 04:38:49;;;;;;;23.30;14.20;;;5.80;99.90;;;;;;4981119;28;20180;-57
2022/03/22 04:41:15;;;;;;;27.23;13.73;;;5.70;99.90;;;;;;4979452;28;20196;-57
2022/03/22 04:43:40;;;;;;;29.37;13.93;;;5.80;99.90;;;;;;4979811;28;20176;-57
2022/03/22 04:46:07;;;;;;;28.37;16.27;;;5.70;99.90;;;;;;4978207;28;20206;-57
2022/03/22 04:48:33;;;;;;;25.40;15.40;;;5.70;99.90;;;;;;4979327;28;20176;-57
2022/03/22 04:56:46;;;;;;;31.07;15.00;;;5.60;99.90;;;;;;4981380;28;20520;-57
2022/03/22 04:59:22;;;;;;;21.60;14.37;;;5.60;99.90;;;;;;4988806;28;20422;-57
2022/03/22 05:01:49;;;;;;;19.40;12.60;;;5.60;99.90;;;;;;4977145;28;20426;-58
2022/03/22 05:04:15;;;;;;;26.27;14.33;;;5.50;99.90;;;;;;4989596;28;20445;-58
2022/03/22 05:06:41;;;;;;;24.83;15.10;;;5.60;99.90;;;;;;4985851;28;20438;-57
2022/03/22 05:09:07;;;;;;;25.23;14.60;;;5.50;99.90;;;;;;4993477;28;20259;-58
2022/03/22 05:11:34;;;;;;;23.10;15.10;;;5.40;99.90;;;;;;4984583;28;20207;-57
2022/03/22 05:14:00;;;;;;;22.17;13.40;;;5.50;99.90;;;;;;4988040;28;20482;-57
2022/03/22 05:16:26;;;;;;;24.13;15.30;;;5.50;99.90;;;;;;4987346;28;20537;-57
2022/03/22 05:18:52;;;;;;;18.83;13.40;;;5.40;99.90;;;;;;4991400;28;20430;-59
2022/03/22 05:21:19;;;;;;;23.23;15.07;;;5.40;99.90;;;;;;4986708;28;20183;-58
2022/03/22 05:23:45;;;;;;;22.83;14.63;;;5.40;99.90;;;;;;4985409;28;20895;-58
2022/03/22 05:26:12;;;;;;;26.30;14.50;;;5.50;99.90;;;;;;4983604;28;20433;-58
2022/03/22 05:28:39;;;;;;;23.23;14.50;;;5.50;99.90;;;;;;4987584;28;20435;-58
2022/03/22 05:31:05;;;;;;;23.93;14.97;;;5.50;99.90;;;;;;4985385;28;20430;-58
2022/03/22 05:33:31;;;;;;;27.73;15.67;;;5.50;99.90;;;;;;4987590;28;20472;-57
2022/03/22 05:35:57;;;;;;;26.67;15.07;;;5.60;99.90;;;;;;4982724;28;20430;-58
2022/03/22 05:38:25;;;;;;;22.30;14.37;;;5.60;99.90;;;;;;4986558;28;20215;-58
2022/03/22 05:40:52;;;;;;;25.57;15.70;;;5.60;99.90;;;;;;4991609;28;20633;-58
2022/03/22 05:43:17;;;;;;;26.90;14.40;;;5.80;99.90;;;;;;4984185;28;20489;-57
2022/03/22 05:45:48;;;;;;;22.87;14.53;;;5.90;99.90;;;;;;4981573;28;20431;-58
2022/03/22 05:48:20;;;;;;;21.87;13.43;;;6.00;99.90;;;;;;4988899;28;20188;-57
2022/03/22 05:50:46;;;;;;;27.27;14.20;;;6.10;99.90;;;;;;4983002;28;20442;-59
2022/03/22 05:53:13;;;;;;;22.30;15.13;;;6.20;99.90;;;;;;4982830;28;21012;-58
2022/03/22 05:55:39;;;;;;;27.07;13.47;;;6.30;99.90;;;;;;4983217;28;20427;-58
2022/03/22 05:58:06;;;;;;;30.80;15.93;;;;;;;;;;4991646;28;20473;-60
2022/03/22 06:00:32;;;;;;;21.47;12.77;;;;;;;;;;4986691;28;20814;-60
2022/03/22 06:02:58;;;;;;;37.00;12.73;;;;;;;;;;4990438;28;20427;-57
2022/03/22 06:05:24;;;;;;;17.10;12.70;;;;;;;;;;4984961;28;20430;-58
2022/03/22 06:07:50;;;;;;;22.70;13.77;;;;;;;;;;4989391;28;20446;-57
2022/03/22 06:10:16;;;;;;;22.43;12.93;;;;;;;;;;4992968;28;20431;-58
2022/03/22 06:12:46;;;;;;;19.83;14.03;;;;;;;;;;4981276;28;20438;-59
2022/03/22 06:15:17;;;;;;;21.20;13.60;;;;;;;;;;4986685;28;20434;-57
2022/03/22 06:17:49;;;;;;;22.33;14.40;;;;;;;;;;4986456;28;20473;-58
2022/03/22 06:20:16;;;;;;;20.67;13.70;;;;;;;;;;4983856;28;20784;-58
2022/03/22 06:22:42;;;;;;;20.97;12.40;;;;;;;;;;4987669;28;20438;-59
2022/03/22 06:25:09;;;;;;;24.13;13.20;;;;;;;;;;4983059;28;20453;-59
2022/03/22 06:27:36;;;;;;;33.60;13.77;;;;;;;;;;4984451;28;20442;-59
2022/03/22 06:30:06;;;;;;;21.27;13.07;;;;;;;;;;4989300;28;20423;-59
2022/03/22 06:32:39;;;;;;;21.60;13.50;;;;;;;;;;4991572;28;20442;-59
2022/03/22 06:35:05;;;;;;;17.50;11.20;;;;;;;;;;4984650;28;20432;-59
2022/03/22 06:37:31;;;;;;;20.57;13.07;;;;;;;;;;4980477;28;20521;-59
2022/03/22 06:39:57;;;;;;;24.93;13.60;;;;;;;;;;4983677;28;20423;-59
2022/03/22 06:42:23;;;;;;;17.33;13.13;;;;;;;;;;4984239;28;20426;-59
2022/03/22 06:44:49;;;;;;;21.40;13.17;;;;;;;;;;4982657;28;20418;-59
2022/03/22 06:47:15;;;;;;;18.40;14.33;;;;;;;;;;4980653;28;20929;-59
2022/03/22 06:49:41;;;;;;;19.70;12.37;;;;;;;;;;4979571;28;20192;-59
2022/03/22 06:52:07;;;;;;;20.47;13.53;;;;;;;;;;4984133;28;20913;-59
2022/03/22 06:54:33;;;;;;;17.93;12.37;;;;;;;;;;4984012;28;20472;-59
2022/03/22 06:56:59;;;;;;;19.23;13.60;;;;;;;;;;4983880;28;20545;-59
2022/03/22 06:59:26;;;;;;;13.83;11.90;;;;;;;;;;4984086;28;20653;-59
2022/03/22 07:01:52;;;;;;;16.70;12.83;;;;;;;;;;4980639;28;20187;-59
2022/03/22 07:04:18;;;;;;;17.33;13.30;;;;;;;;;;4980748;28;20435;-59
2022/03/22 07:06:46;;;;;;;20.83;12.67;;;;;;;;;;4981121;28;20453;-59
2022/03/22 07:09:12;;;;;;;25.13;13.63;;;;;;;;;;4982395;28;20486;-59
2022/03/22 07:11:49;;;;;;;13.97;12.20;;;;;;;;;;4980619;28;20438;-59
2022/03/22 07:14:16;;;;;;;21.90;11.93;;;;;;;;;;4983719;28;20506;-59
2022/03/22 07:16:42;;;;;;;18.23;12.63;;;;;;;;;;4983119;28;20524;-59
2022/03/22 07:19:08;;;;;;;21.50;12.90;;;;;;;;;;4980326;28;20423;-59
2022/03/22 07:21:34;;;;;;;28.43;13.63;;;;;;;;;;4962629;28;20435;-59
2022/03/22 07:24:00;;;;;;;16.60;12.50;;;;;;;;;;4983312;28;20429;-59
2022/03/22 07:26:26;;;;;;;31.40;14.50;;;;;;;;;;4983277;28;20638;-59
2022/03/22 07:28:52;;;;;;;25.53;15.20;;;;;;;;;;4981583;28;20226;-59
2022/03/22 07:31:18;;;;;;;19.27;13.47;;;;;;;;;;4980134;28;20430;-59
2022/03/22 07:33:44;;;;;;;19.80;13.10;;;;;;;;;;4963362;28;20426;-59
2022/03/22 07:36:10;;;;;;;16.97;12.93;;;;;;;;;;4983338;28;20517;-59
2022/03/22 07:38:36;;;;;;;17.50;12.27;;;;;;;;;;4983367;28;20426;-59
2022/03/22 07:41:03;;;;;;;18.47;14.30;;;;;;;;;;4980059;28;20462;-59
2022/03/22 07:43:30;;;;;;;22.00;13.63;;;;;;;;;;4979917;28;20478;-59
2022/03/22 07:45:56;;;;;;;17.73;12.17;;;;;;;;;;4982435;28;20506;-59
2022/03/22 07:48:22;;;;;;;14.87;11.70;;;;;;;;;;4983413;28;20479;-59
2022/03/22 07:53:33;;;;;;;18.20;12.67;;;;;;;;;;4979973;28;20462;-59
2022/03/22 07:55:59;;;;;;;16.97;11.97;;;;;;;;;;4982492;28;20426;-59
2022/03/22 07:58:25;;;;;;;16.10;11.10;;;;;;;;;;4985059;28;20512;-59
2022/03/22 08:00:51;;;;;;;16.63;11.77;;;;;;;;;;4981695;28;20441;-59
2022/03/22 08:03:18;;;;;;;17.90;12.13;;;;;;;;;;4983246;28;20516;-59
2022/03/22 08:05:47;;;;;;;17.83;12.57;;;;;;;;;;4982249;28;20422;-59
2022/03/22 08:08:13;;;;;;;17.00;12.30;;;;;;;;;;4979735;28;20474;-59
2022/03/22 08:10:39;;;;;;;13.00;11.30;;;;;;;;;;4982885;28;20449;-59
2022/03/22 08:13:06;;;;;;;18.17;11.53;;;;;;;;;;4979946;28;20525;-59
2022/03/22 08:15:32;;;;;;;21.87;12.40;;;;;;;;;;4979945;28;20191;-59
2022/03/22 08:17:59;;;;;;;20.53;12.27;;;;;;;;;;4982303;28;20880;-59
2022/03/22 08:20:27;;;;;;;15.10;11.97;;;;;;;;;;4983017;28;20426;-59
2022/03/22 08:23:04;;;;;;;17.27;11.67;;;;;;;;;;4979608;28;20434;-59
2022/03/22 08:25:30;;;;;;;23.00;11.67;;;;;;;;;;4978727;28;20921;-59
2022/03/22 08:27:57;;;;;;;17.93;11.53;;;;;;;;;;4982159;28;20522;-59
2022/03/22 08:30:23;;;;;;;12.50;9.90;;;;;;;;;;4983112;28;20461;-59
2022/03/22 08:32:53;;;;;;;14.90;11.47;;;;;;;;;;4981493;28;20429;-59
2022/03/22 08:35:20;;;;;;;16.37;11.43;;;;;;;;;;4979620;28;20427;-59
2022/03/22 08:37:45;;;;;;;16.97;11.63;;;6.50;99.90;;;;;;4981335;28;20463;-59
2022/03/22 08:40:13;;;;;;;14.90;11.67;;;;;;;;;;4986830;28;20440;-59
2022/03/22 08:42:43;;;;;;;14.97;11.40;;;;;;;;;;4986560;28;20207;-58
2022/03/22 08:45:10;;;;;;;15.93;10.93;;;;;;;;;;4983173;28;20426;-58
2022/03/22 08:47:36;;;;;;;14.30;10.97;;;;;;;;;;4983187;28;20433;-59
2022/03/22 08:50:05;;;;;;;11.10;9.60;;;;;;;;;;4986275;28;20430;-58
2022/03/22 08:52:32;;;;;;;18.33;12.03;;;;;;;;;;4986578;28;20422;-59
2022/03/22 08:54:58;;;;;;;20.00;12.47;;;;;;;;;;4983507;28;20870;-59
2022/03/22 08:57:24;;;;;;;18.23;10.83;;;;;;;;;;4989122;28;20507;-59
2022/03/22 08:59:51;;;;;;;20.07;12.50;;;;;;;;;;4984619;28;20513;-59
2022/03/22 09:02:17;;;;;;;14.30;10.87;;;;;;;;;;4982918;28;20677;-59
2022/03/22 09:07:27;;;;;;;14.83;10.40;;;;;;;;;;4982804;28;20426;-59
2022/03/22 09:09:53;;;;;;;14.20;9.83;;;;;;;;;;4984811;28;20433;-59
2022/03/22 09:12:19;;;;;;;15.80;10.90;;;;;;;;;;4986113;28;20426;-59
2022/03/22 09:14:46;;;;;;;13.80;11.60;;;;;;;;;;4985152;28;20468;-59
2022/03/22 09:17:13;;;;;;;17.90;11.30;;;;;;;;;;4982505;28;20545;-59
2022/03/22 09:19:39;;;;;;;13.60;11.63;;;;;;;;;;4982732;28;20427;-59
2022/03/22 09:22:05;;;;;;;16.20;11.47;;;;;;;;;;4986054;28;20418;-59
2022/03/22 09:24:37;;;;;;;16.30;11.90;;;;;;;;;;4986097;28;20426;-59
2022/03/22 09:27:03;;;;;;;20.80;11.97;;;;;;;;;;4982571;28;20450;-59
2022/03/22 09:29:29;;;;;;;16.57;11.33;;;;;;;;;;4982419;28;20510;-59
2022/03/22 09:31:56;;;;;;;15.80;11.03;;;;;;;;;;4984808;28;20422;-59
2022/03/22 09:34:24;;;;;;;21.57;11.47;;;;;;;;;;4985868;28;20422;-59
2022/03/22 09:36:50;;;;;;;17.03;11.67;;;;;;;;;;4983842;28;20462;-59
2022/03/22 09:39:16;;;;;;;17.00;12.03;;;;;;;;;;4982155;28;20470;-59
2022/03/22 09:41:43;;;;;;;12.33;11.03;;;;;;;;;;4982918;28;20190;-59
2022/03/22 09:44:10;;;;;;;16.13;11.20;;;15.40;1.00;;;;;;4985326;28;20423;-59
2022/03/22 09:46:36;;;;;;;16.23;11.10;;;18.80;1.00;;;;;;4985482;28;20430;-59
2022/03/22 09:49:02;;;;;;;14.37;10.57;;;18.50;1.00;;;;;;4981941;28;20471;-59
2022/03/22 09:51:47;;;;;;;15.33;12.27;;;18.30;1.00;;;;;;4982113;28;20469;-59
2022/03/22 09:54:13;;;;;;;16.50;11.97;;;18.40;1.00;;;;;;4985124;28;20257;-59
2022/03/22 09:56:40;;;;;;;14.50;11.20;;;18.40;1.00;;;;;;4985194;28;20464;-59
2022/03/22 09:59:06;;;;;;;21.70;13.27;;;18.60;1.00;;;;;;4985074;28;20422;-59
2022/03/22 10:01:32;;;;;;;14.67;11.80;;;18.80;1.00;;;;;;4985311;28;20449;-59
2022/03/22 10:04:13;;;;;;;17.10;12.00;;;19.00;1.00;;;;;;4982269;28;20646;-59
2022/03/22 10:06:51;;;;;;;14.47;11.90;;;19.00;1.00;;;;;;4981933;28;20435;-59
2022/03/22 10:09:31;;;;;;;16.47;11.40;;;19.30;1.00;;;;;;4982635;28;20978;-59
2022/03/22 10:11:57;;;;;;;20.17;11.80;;;19.30;1.00;;;;;;4984147;28;20469;-59
2022/03/22 10:14:39;;;;;;;20.13;10.67;;;19.20;1.00;;;;;;4984901;28;20428;-59
2022/03/22 10:17:10;;;;;;;11.60;10.13;;;19.30;1.00;;;;;;4985169;28;20464;-59
2022/03/22 10:19:56;;;;;;;17.13;10.70;;;19.60;1.00;;;;;;4984536;28;20419;-59
2022/03/22 10:22:23;;;;;;;17.87;12.80;;;19.90;1.00;;;;;;4981208;28;20473;-59
2022/03/22 10:24:51;;;;;;;13.80;11.50;;;19.80;1.00;;;;;;4982829;28;20443;-59
2022/03/22 10:27:26;;;;;;;14.13;11.70;;;19.60;1.00;;;;;;4984673;28;20421;-59
2022/03/22 10:29:53;;;;;;;17.30;12.00;;;19.60;1.00;;;;;;4982703;28;20414;-59
2022/03/22 10:32:33;;;;;;;21.00;12.13;;;19.80;1.00;;;;;;4981198;28;20438;-59
2022/03/22 10:35:27;;;;;;;22.57;12.03;;;20.40;1.00;;;;;;4983864;28;20433;-59
2022/03/22 10:37:54;;;;;;;16.33;12.07;;;20.30;1.00;;;;;;4979650;28;20976;-59
2022/03/22 10:40:23;;;;;;;20.90;12.30;;;20.60;1.00;;;;;;4984432;28;20429;-59
2022/03/22 10:42:50;;;;;;;22.93;12.57;;;20.00;1.00;;;;;;4982852;28;20415;-59
2022/03/22 10:45:16;;;;;;;14.93;10.63;;;20.20;1.00;;;;;;4980968;28;20759;-59
2022/03/22 10:47:43;;;;;;;12.53;11.13;;;20.60;1.00;;;;;;4981549;28;20974;-60
2022/03/22 10:50:09;;;;;;;16.13;10.97;;;;;;;;;;4984198;28;20233;-59
2022/03/22 10:52:40;;;;;;;15.43;10.40;;;;;;;;;;4984230;28;20414;-59
2022/03/22 10:55:07;;;;;;;17.73;11.57;;;;;;;;;;4988280;28;20434;-59
2022/03/22 10:57:37;;;;;;;15.70;11.63;;;;;;;;;;4988011;28;20850;-59
2022/03/22 11:00:08;;;;;;;16.73;11.80;;;;;;;;;;4980152;28;20438;-59
2022/03/22 11:02:37;;;;;;;17.97;10.37;;;;;;;;;;4980799;28;20419;-59
2022/03/22 11:05:04;;;;;;;12.10;9.80;;;;;;;;;;4983857;28;20438;-59
2022/03/22 11:07:34;;;;;;;17.83;11.03;;;;;;;;;;4980187;28;20446;-59
2022/03/22 11:10:01;;;;;;;30.97;12.07;;;;;;;;;;4983302;28;20430;-59
2022/03/22 11:12:27;;;;;;;18.17;11.47;;;;;;;;;;4983992;28;20433;-59
2022/03/22 11:14:57;;;;;;;15.03;10.20;;;;;;;;;;4981777;28;20422;-59
2022/03/22 11:17:24;;;;;;;14.63;11.60;;;;;;;;;;4980320;28;20483;-59
2022/03/22 11:19:50;;;;;;;15.17;9.60;;;;;;;;;;4981961;28;20427;-59
2022/03/22 11:22:19;;;;;;;14.07;11.00;;;;;;;;;;4983424;28;20446;-59
2022/03/22 11:24:45;;;;;;;14.17;9.63;;;;;;;;;;4982506;28;20495;-59
2022/03/22 11:27:12;;;;;;;17.67;11.30;;;;;;;;;;4980158;28;20905;-59
2022/03/22 11:29:39;;;;;;;16.20;11.53;;;;;;;;;;4980286;28;20322;-59
2022/03/22 11:34:57;;;;;;;15.37;10.37;;;;;;;;;;4981178;28;20430;-59
2022/03/22 11:37:33;;;;;;;13.70;10.13;;;;;;;;;;4980068;28;20829;-59
2022/03/22 11:42:55;;;;;;;15.70;10.37;;;;;;;;;;4982929;28;20502;-59
2022/03/22 11:45:21;;;;;;;12.67;10.70;;;;;;;;;;4979959;28;20416;-59
2022/03/22 11:47:53;;;;;;;12.17;9.83;;;;;;;;;;4980959;28;20935;-59
2022/03/22 11:50:20;;;;;;;10.97;8.47;;;;;;;;;;4983124;28;20277;-59
2022/03/22 11:52:48;;;;;;;12.67;9.07;;;;;;;;;;4982031;28;20418;-58
2022/03/22 11:55:18;;;;;;;14.67;9.77;;;20.30;1.00;;;;;;4962431;28;20459;-55
2022/03/22 11:57:48;;;;;;;13.13;9.13;;;;;;;;;;4987681;28;20980;-55
2022/03/22 12:00:16;;;;;;;18.47;9.87;;;;;;;;;;4979874;28;20415;-55
2022/03/22 12:02:43;;;;;;;14.03;9.17;;;;;;;;;;4980556;28;20415;-55
2022/03/22 12:05:09;;;;;;;12.33;10.33;;;;;;;;;;4982972;28;20422;-56
2022/03/22 12:07:37;;;;;;;12.47;9.40;;;;;;;;;;4978549;28;20423;-55
2022/03/22 12:10:13;;;;;;;13.30;9.23;;;;;;;;;;4979875;28;20827;-57
2022/03/22 12:12:48;;;;;;;13.73;8.20;;;;;;;;;;4980800;28;20413;-56
2022/03/22 12:15:16;;;;;;;11.70;9.10;;;;;;;;;;4983924;28;20915;-57
2022/03/22 12:17:43;;;;;;;15.83;10.97;;;;;;;;;;4984256;28;20546;-57
2022/03/22 12:20:11;;;;;;;13.03;10.17;;;;;;;;;;4986989;28;20421;-56
2022/03/22 12:22:41;;;;;;;12.83;9.93;;;;;;;;;;4986693;28;20426;-56
2022/03/22 12:25:08;;;;;;;14.47;10.33;;;;;;;;;;4987680;28;20525;-54
2022/03/22 12:27:34;;;;;;;23.73;10.93;;;;;;;;;;4987015;28;20913;-55
2022/03/22 12:30:00;;;;;;;13.80;10.40;;;;;;;;;;4983939;28;20438;-56
2022/03/22 12:32:27;;;;;;;12.30;9.00;;;;;;;;;;4983459;28;20582;-57
2022/03/22 12:34:54;;;;;;;16.60;9.87;;;;;;;;;;4985587;28;20246;-57
2022/03/22 12:37:20;;;;;;;15.70;11.83;;;;;;;;;;4984091;28;20604;-57
2022/03/22 12:39:47;;;;;;;17.57;10.90;;;;;;;;;;4984418;28;20867;-57
2022/03/22 12:42:14;;;;;;;15.10;10.60;;;;;;;;;;4986681;28;20418;-57
2022/03/22 12:44:41;;;;;;;12.70;10.30;;;;;;;;;;4968913;28;20951;-55
2022/03/22 12:47:07;;;;;;;15.53;10.80;;;;;;;;;;4983210;28;20573;-59
2022/03/22 12:49:34;;;;;;;16.53;11.23;;;;;;;;;;4983100;28;20917;-58
2022/03/22 12:52:01;;;;;;;12.53;11.27;;;;;;;;;;4986294;28;20501;-55
2022/03/22 12:54:31;;;;;;;21.33;11.33;;;;;;;;;;4986451;28;20473;-58
2022/03/22 12:57:00;;;;;;;12.07;10.80;;;;;;;;;;4986460;28;20465;-58
2022/03/22 12:59:26;;;;;;;19.83;11.40;;;;;;;;;;4986523;28;20788;-58
2022/03/22 13:01:57;;;;;;;17.77;9.63;;;;;;;;;;4984612;28;20426;-59
2022/03/22 13:04:28;;;;;;;13.27;9.63;;;;;;;;;;4988330;28;20437;-59
2022/03/22 13:06:59;;;;;;;16.40;9.87;;;;;;;;;;4988174;28;20504;-55
2022/03/22 13:12:11;;;;;;;11.47;9.40;;;;;;;;;;4982641;28;20414;-55
2022/03/22 13:17:22;;;;;;;14.50;10.43;;;;;;;;;;4988368;28;20979;-55
2022/03/22 13:19:48;;;;;;;14.20;9.10;;;;;;;;;;4983798;28;20557;-56
2022/03/22 13:22:18;;;;;;;11.33;8.33;;;;;;;;;;4986014;28;20505;-56
2022/03/22 13:24:44;;;;;;;13.07;9.40;;;;;;;;;;4985656;28;20184;-57
2022/03/22 13:27:13;;;;;;;15.90;10.70;;;;;;;;;;4985780;28;20445;-56
2022/03/22 13:29:40;;;;;;;12.87;10.43;;;;;;;;;;4985536;28;20202;-56
2022/03/22 13:32:11;;;;;;;12.53;9.77;;;;;;;;;;4982417;28;20510;-56
2022/03/22 13:34:38;;;;;;;10.87;9.20;;;;;;;;;;4981814;28;20419;-56
2022/03/22 13:37:11;;;;;;;15.87;10.23;;;;;;;;;;4982276;28;20450;-57
2022/03/22 13:39:38;;;;;;;16.20;10.37;;;;;;;;;;4979062;28;20967;-57
2022/03/22 13:42:24;;;;;;;11.37;9.07;;;;;;;;;;4982649;28;20406;-57
2022/03/22 13:45:01;;;;;;;10.97;8.73;;;;;;;;;;4981179;28;20429;-56
2022/03/22 13:47:29;;;;;;;15.30;9.83;;;;;;;;;;4979190;28;20457;-56
2022/03/22 13:49:55;;;;;;;13.10;10.07;;;;;;;;;;4981918;28;20419;-56
2022/03/22 13:52:25;;;;;;;15.70;10.50;;;;;;;;;;4987349;28;20430;-56
2022/03/22 13:54:55;;;;;;;13.30;11.20;;;;;;;;;;4981882;28;20450;-56
2022/03/22 13:57:28;;;;;;;12.40;10.33;;;;;;;;;;4986505;28;20528;-56
2022/03/22 14:00:01;;;;;;;13.33;9.33;;;;;;;;;;4985190;28;20434;-56
2022/03/22 14:02:27;;;;;;;16.60;11.73;;;;;;;;;;4985115;28;20889;-56
2022/03/22 14:04:55;;;;;;;13.80;10.07;;;;;;;;;;4983350;28;20421;-56
2022/03/22 14:07:21;;;;;;;22.40;11.00;;;;;;;;;;4981526;28;20434;-56
2022/03/22 14:09:47;;;;;;;15.40;9.90;;;;;;;;;;4982246;28;20431;-55
2022/03/22 14:12:13;;;;;;;13.97;10.70;;;;;;;;;;4985205;28;20265;-56
2022/03/22 14:14:39;;;;;;;10.43;8.73;;;;;;;;;;4984947;28;20438;-56
2022/03/22 14:17:05;;;;;;;14.20;9.53;;;;;;;;;;4981494;28;20822;-57
2022/03/22 14:19:31;;;;;;;15.30;10.47;;;;;;;;;;4981469;28;20920;-57
2022/03/22 14:21:57;;;;;;;13.70;9.83;;;;;;;;;;4984060;28;20446;-56
2022/03/22 14:24:26;;;;;;;12.23;9.10;;;;;;;;;;4984862;28;20465;-56
2022/03/22 14:26:53;;;;;;;16.80;10.20;;;;;;;;;;4982962;28;20422;-56
2022/03/22 14:29:19;;;;;;;18.43;9.87;;;;;;;;;;4981408;28;20463;-56
2022/03/22 14:31:45;;;;;;;13.17;10.20;;;;;;;;;;4982235;28;20473;-56
2022/03/22 14:35:46;;;;;;;14.50;11.67;;;;;;;;;;4984479;28;20509;-56